Sun City West, Arizona
Current Conditions -  °F | °C
As of 10:58 AM on Friday 24 Oct 2014 (Local Time) from KLUF Reporting Station
Clear Clear  
Wind Chill: 82°   Ceiling: Unl
Heat Index: 82°   Visibility: 10mi
Dew Point: 47°   Wind: 0mph
Humidity: 29%   Direction: NA
Pressure: 30.06"   Gusts: NA
Location:  33.67°N, 112.35°W
Report Text: KLUF 241758Z AUTO 00000KT 10SM CLR 28/08 A3006 RMK AO2 SLP169 T02790081 10279 20167 50003 $
Loading
Personal Weather Stations






























Interactive Weather Map
Tropical Storm Tracking
New forecast layout! Learn more

10-Day Weather Forecast

Advertisements
Track Severe Weather on mobile